Time;durP1;ratioP1;P1;durP2;ratioP2;P2;SDS_P1;SDS_P2;PMS_P1;PMS_P2;Temp;Humidity;BMP_temperature;BMP_pressure;BME280_temperature;BME280_humidity;BME280_pressure;Samples;Min_cycle;Max_cycle;Signal;HPM_P1;HPM_P2
2022/05/20 00:00:48;;;;;;;1.17;1.00;;;21.90;56.60;;;;;;5067829;28;43429;-62
2022/05/20 00:03:16;;;;;;;1.10;1.00;;;21.90;56.60;;;;;;5068223;28;43506;-62
2022/05/20 00:05:44;;;;;;;0.73;0.73;;;21.90;56.60;;;;;;5069302;27;44678;-62
2022/05/20 00:08:11;;;;;;;1.10;1.00;;;21.90;56.60;;;;;;5067600;28;43405;-62
2022/05/20 00:10:39;;;;;;;0.90;0.90;;;21.90;56.60;;;;;;5068498;28;43502;-62
2022/05/20 00:13:07;;;;;;;1.10;1.00;;;21.90;56.60;;;;;;5067753;28;43551;-62
2022/05/20 00:15:35;;;;;;;0.80;0.80;;;21.90;56.60;;;;;;5064799;28;43695;-63
2022/05/20 00:18:02;;;;;;;0.93;0.90;;;21.90;56.60;;;;;;5067403;28;43440;-63
2022/05/20 00:20:30;;;;;;;0.70;0.70;;;21.80;56.50;;;;;;5066704;28;43411;-62
2022/05/20 00:22:57;;;;;;;1.05;1.02;;;21.90;56.60;;;;;;5068185;28;43509;-62
2022/05/20 00:28:25;;;;;;;0.90;0.90;;;21.80;56.60;;;;;;5067158;28;43446;-62
2022/05/20 00:31:14;;;;;;;0.88;0.88;;;21.80;56.50;;;;;;5068468;28;43422;-63
2022/05/20 00:33:43;;;;;;;0.80;0.80;;;21.80;56.50;;;;;;5067226;28;43591;-62
2022/05/20 00:36:10;;;;;;;1.33;0.95;;;21.80;56.60;;;;;;5064263;28;44679;-63
2022/05/20 00:38:38;;;;;;;1.70;0.98;;;21.80;56.60;;;;;;5066744;28;43416;-63
2022/05/20 00:41:07;;;;;;;1.45;1.35;;;21.80;56.60;;;;;;5067958;28;43422;-63
2022/05/20 00:43:37;;;;;;;1.42;1.00;;;21.80;56.50;;;;;;5067006;28;43490;-62
2022/05/20 00:46:09;;;;;;;1.00;0.90;;;21.80;56.50;;;;;;5066714;28;43808;-63
2022/05/20 00:48:38;;;;;;;1.38;1.20;;;21.80;56.50;;;;;;5066832;28;43438;-62
2022/05/20 00:51:08;;;;;;;0.80;0.80;;;21.80;56.60;;;;;;5064616;28;43408;-62
2022/05/20 00:53:52;;;;;;;0.90;0.90;;;21.80;56.50;;;;;;5066933;28;43553;-63
2022/05/20 00:56:25;;;;;;;1.20;0.82;;;21.80;56.50;;;;;;5062907;28;44701;-63
2022/05/20 00:58:54;;;;;;;0.85;0.85;;;21.70;56.50;;;;;;5068088;28;43505;-63
2022/05/20 01:01:21;;;;;;;1.10;1.00;;;21.70;56.50;;;;;;5066460;28;43453;-62
2022/05/20 01:03:52;;;;;;;0.82;0.82;;;21.70;56.50;;;;;;5066975;28;43628;-63
2022/05/20 01:06:19;;;;;;;0.95;0.95;;;21.70;57.10;;;;;;5067957;28;44055;-62
2022/05/20 01:08:47;;;;;;;0.75;0.75;;;21.70;56.50;;;;;;5064870;28;43982;-62
2022/05/20 01:11:15;;;;;;;1.02;0.93;;;21.70;56.50;;;;;;5066838;28;43426;-62
2022/05/20 01:13:44;;;;;;;1.02;0.90;;;21.70;56.50;;;;;;5066691;28;43443;-62
2022/05/20 01:16:12;;;;;;;1.35;0.98;;;21.70;56.50;;;;;;5067946;28;43806;-63
2022/05/20 01:18:43;;;;;;;1.00;0.90;;;21.70;56.50;;;;;;5064480;27;43352;-62
2022/05/20 01:21:12;;;;;;;1.30;1.02;;;21.70;56.50;;;;;;5066023;28;43449;-63
2022/05/20 01:23:39;;;;;;;1.30;1.20;;;21.70;56.50;;;;;;5066590;28;43960;-62
2022/05/20 01:26:07;;;;;;;0.93;0.90;;;21.60;56.40;;;;;;5068362;28;43816;-62
2022/05/20 01:28:35;;;;;;;1.00;0.90;;;21.60;56.40;;;;;;5066823;28;43650;-62
2022/05/20 01:31:12;;;;;;;1.02;1.00;;;21.70;56.50;;;;;;5066391;28;44021;-62
2022/05/20 01:33:46;;;;;;;1.35;0.85;;;21.60;56.40;;;;;;5066464;28;43490;-63
2022/05/20 01:36:17;;;;;;;1.10;1.00;;;21.60;56.40;;;;;;5066049;28;43807;-62
2022/05/20 01:38:44;;;;;;;;;;;21.60;56.40;;;;;;5066818;28;43715;-62
2022/05/20 01:41:14;;;;;;;2.35;0.90;;;21.60;56.40;;;;;;5066432;28;43530;-62
2022/05/20 01:44:01;;;;;;;1.10;1.00;;;21.50;56.40;;;;;;5068052;28;43408;-63
2022/05/20 01:46:44;;;;;;;1.00;0.90;;;21.60;56.50;;;;;;5052615;28;43809;-63
2022/05/20 01:49:55;;;;;;;1.20;0.90;;;21.50;56.40;;;;;;5066185;28;43417;-62
2022/05/20 01:52:26;;;;;;;0.90;0.90;;;21.50;56.50;;;;;;5046898;28;43564;-62
2022/05/20 01:55:09;;;;;;;1.00;0.98;;;21.50;56.40;;;;;;5047025;28;43665;-63
2022/05/20 01:57:40;;;;;;;1.45;1.08;;;21.50;56.40;;;;;;5061174;28;43823;-62
2022/05/20 02:00:11;;;;;;;;;;;21.50;56.40;;;;;;5069711;28;44217;-62
2022/05/20 02:02:55;;;;;;;1.10;1.00;;;21.50;56.40;;;;;;5069796;28;43466;-62
2022/05/20 02:05:54;;;;;;;1.35;0.93;;;21.50;56.50;;;;;;5067795;28;43517;-62
2022/05/20 02:08:28;;;;;;;1.00;0.90;;;21.50;56.40;;;;;;5059574;28;44682;-62
2022/05/20 02:11:11;;;;;;;1.05;0.90;;;21.50;56.50;;;;;;5069530;28;43735;-62
2022/05/20 02:13:43;;;;;;;1.00;1.00;;;21.50;56.40;;;;;;5066023;28;43433;-63
2022/05/20 02:16:24;;;;;;;1.13;1.00;;;21.50;56.50;;;;;;5069052;28;43479;-62
2022/05/20 02:18:56;;;;;;;;;;;21.50;56.40;;;;;;5065458;28;44136;-63
2022/05/20 02:21:27;;;;;;;0.93;0.90;;;21.50;56.50;;;;;;5071689;28;43496;-63
2022/05/20 02:23:59;;;;;;;0.90;0.90;;;21.40;56.50;;;;;;5066756;28;43399;-62
2022/05/20 02:26:33;;;;;;;1.00;1.00;;;21.40;56.50;;;;;;5068796;28;43382;-63
2022/05/20 02:29:07;;;;;;;0.93;0.93;;;21.40;56.50;;;;;;5068401;28;43799;-63
2022/05/20 02:31:58;;;;;;;1.30;1.05;;;21.40;56.40;;;;;;5069527;28;43434;-63
2022/05/20 02:34:26;;;;;;;1.50;1.40;;;21.40;56.40;;;;;;5030173;28;43508;-62
2022/05/20 02:36:53;;;;;;;0.80;0.80;;;21.40;56.50;;;;;;5071299;28;43636;-62
2022/05/20 02:39:21;;;;;;;1.40;1.00;;;21.40;56.40;;;;;;5068743;28;44700;-63
2022/05/20 02:41:49;;;;;;;1.13;1.00;;;21.40;56.40;;;;;;5067601;28;43500;-62
2022/05/20 02:44:17;;;;;;;0.93;0.90;;;21.40;56.40;;;;;;5068874;28;43517;-62
2022/05/20 02:46:47;;;;;;;1.13;1.13;;;21.40;56.60;;;;;;5070884;28;43554;-63
2022/05/20 02:49:14;;;;;;;0.82;0.82;;;21.40;56.40;;;;;;5065321;28;43961;-63
2022/05/20 02:51:42;;;;;;;1.00;1.00;;;21.40;56.40;;;;;;5066164;28;43408;-63
2022/05/20 02:54:09;;;;;;;1.00;1.00;;;21.40;56.40;;;;;;5068688;28;43452;-63
2022/05/20 02:56:38;;;;;;;2.25;1.27;;;21.40;56.40;;;;;;5071080;28;43531;-62
2022/05/20 03:04:37;;;;;;;1.13;1.05;;;21.30;56.40;;;;;;5063904;28;43397;-62
2022/05/20 03:07:05;;;;;;;0.85;0.85;;;21.30;56.40;;;;;;5068133;28;43499;-62
2022/05/20 03:09:32;;;;;;;0.98;0.95;;;21.30;56.50;;;;;;5068482;28;43794;-63
2022/05/20 03:12:00;;;;;;;1.50;1.40;;;21.30;56.50;;;;;;5068364;28;43790;-62
2022/05/20 03:14:27;;;;;;;1.35;1.20;;;21.30;56.40;;;;;;5066664;28;43413;-63
2022/05/20 03:16:59;;;;;;;1.23;1.13;;;21.30;56.40;;;;;;5083609;27;43736;-63
2022/05/20 03:19:31;;;;;;;2.35;1.15;;;21.30;56.40;;;;;;5066527;28;43872;-62
2022/05/20 03:22:02;;;;;;;1.08;1.00;;;21.30;56.40;;;;;;5082070;27;43652;-62
2022/05/20 03:24:30;;;;;;;1.63;1.20;;;21.20;56.40;;;;;;5069504;27;43442;-63
2022/05/20 03:26:58;;;;;;;1.10;1.00;;;21.20;56.40;;;;;;5067815;28;43494;-62
2022/05/20 03:29:26;;;;;;;1.20;1.10;;;21.20;56.40;;;;;;5065857;28;44699;-63
2022/05/20 03:31:53;;;;;;;1.10;1.10;;;21.20;56.40;;;;;;5067717;28;43528;-63
2022/05/20 03:34:21;;;;;;;1.48;1.33;;;21.20;56.40;;;;;;5067501;28;43480;-63
2022/05/20 03:36:50;;;;;;;1.05;1.05;;;21.20;56.40;;;;;;5067375;28;43458;-63
2022/05/20 03:39:21;;;;;;;1.10;1.00;;;21.20;56.40;;;;;;5063159;28;43805;-62
2022/05/20 03:41:49;;;;;;;1.20;1.20;;;21.20;56.40;;;;;;5069085;28;43496;-63
2022/05/20 03:44:17;;;;;;;1.20;1.10;;;21.20;56.40;;;;;;5068701;27;43475;-63
2022/05/20 03:46:49;;;;;;;1.20;1.10;;;21.20;56.40;;;;;;5067057;28;43474;-63
2022/05/20 03:49:17;;;;;;;1.30;1.20;;;21.20;56.50;;;;;;5067885;28;44005;-63
2022/05/20 03:51:46;;;;;;;1.00;1.00;;;21.10;56.40;;;;;;5070428;28;44844;-63
2022/05/20 03:54:16;;;;;;;1.20;1.10;;;21.10;56.40;;;;;;5067008;28;43588;-63
2022/05/20 03:56:44;;;;;;;0.95;0.95;;;21.10;56.40;;;;;;5065259;28;43470;-62
2022/05/20 03:59:12;;;;;;;1.13;1.02;;;21.10;56.40;;;;;;5067432;28;43783;-62
2022/05/20 04:01:59;;;;;;;1.10;1.10;;;21.10;56.40;;;;;;5059413;28;43784;-62
2022/05/20 04:04:49;;;;;;;1.40;1.30;;;21.10;56.40;;;;;;5058209;28;43986;-63
2022/05/20 04:07:23;;;;;;;0.93;0.93;;;21.10;56.40;;;;;;5065750;28;43585;-63
2022/05/20 04:09:50;;;;;;;1.23;1.15;;;21.10;56.50;;;;;;5067908;28;44161;-63
2022/05/20 04:12:28;;;;;;;1.13;1.00;;;21.00;56.40;;;;;;5067399;28;43662;-63
2022/05/20 04:14:56;;;;;;;1.65;1.20;;;21.00;56.40;;;;;;5065523;28;43416;-62
2022/05/20 04:17:25;;;;;;;1.15;1.05;;;21.10;56.50;;;;;;5065299;28;43423;-63
2022/05/20 04:19:53;;;;;;;1.23;1.13;;;21.10;56.40;;;;;;5067403;28;44229;-62
2022/05/20 04:22:26;;;;;;;1.27;1.15;;;21.00;56.40;;;;;;5066792;28;43685;-62
2022/05/20 04:24:55;;;;;;;1.30;1.20;;;21.00;56.40;;;;;;5066506;28;43507;-63
2022/05/20 04:27:23;;;;;;;1.40;1.25;;;21.00;56.40;;;;;;5068480;28;43948;-62
2022/05/20 04:29:50;;;;;;;1.25;1.20;;;21.00;56.40;;;;;;5067486;28;43852;-62
2022/05/20 04:32:18;;;;;;;1.17;1.10;;;21.00;56.40;;;;;;5067289;28;43417;-63
2022/05/20 04:34:46;;;;;;;1.85;1.27;;;21.00;56.40;;;;;;5066125;28;43992;-62
2022/05/20 04:37:14;;;;;;;1.00;1.00;;;21.00;56.40;;;;;;5068884;27;43436;-63
2022/05/20 04:39:41;;;;;;;1.23;1.17;;;21.00;56.40;;;;;;5067311;28;43808;-63
2022/05/20 04:47:45;;;;;;;1.25;1.15;;;21.00;56.40;;;;;;5064443;28;43403;-62
2022/05/20 04:50:13;;;;;;;1.15;1.05;;;21.00;56.40;;;;;;5062179;28;43934;-63
2022/05/20 04:52:40;;;;;;;1.52;1.42;;;21.00;56.40;;;;;;5067360;28;44032;-63
2022/05/20 04:55:08;;;;;;;1.10;1.00;;;20.90;56.40;;;;;;5066108;28;43436;-62
2022/05/20 04:57:38;;;;;;;1.20;1.10;;;20.90;56.40;;;;;;5066472;28;43512;-63
2022/05/20 05:00:11;;;;;;;1.00;0.90;;;20.90;56.50;;;;;;5066838;28;43792;-62
2022/05/20 05:02:39;;;;;;;1.13;1.02;;;20.90;56.50;;;;;;5064536;28;43468;-63
2022/05/20 05:05:09;;;;;;;1.17;1.08;;;20.90;56.40;;;;;;5066573;28;43431;-62
2022/05/20 05:07:42;;;;;;;1.23;1.13;;;20.90;56.50;;;;;;5066428;28;43523;-63
2022/05/20 05:10:12;;;;;;;0.93;0.90;;;20.90;56.50;;;;;;5066926;28;44709;-62
2022/05/20 05:12:40;;;;;;;1.13;1.10;;;20.90;56.50;;;;;;5067785;28;44036;-62
2022/05/20 05:15:09;;;;;;;0.93;0.93;;;20.90;56.50;;;;;;5066681;28;43541;-63
2022/05/20 05:20:26;;;;;;;1.00;1.00;;;20.90;56.50;;;;;;5067044;28;44815;-63
2022/05/20 05:22:56;;;;;;;1.30;1.20;;;20.90;56.50;;;;;;5066386;28;43437;-63
2022/05/20 05:25:26;;;;;;;0.88;0.88;;;20.80;56.50;;;;;;5061471;27;43480;-63
2022/05/20 05:27:54;;;;;;;1.25;1.15;;;20.80;56.50;;;;;;5070267;28;43436;-62
2022/05/20 05:30:22;;;;;;;1.23;1.13;;;20.90;56.60;;;;;;5069396;28;44791;-62
2022/05/20 05:32:50;;;;;;;0.98;0.98;;;20.80;56.50;;;;;;5069714;28;43530;-63
2022/05/20 05:35:20;;;;;;;1.23;1.05;;;20.80;56.50;;;;;;5068273;28;43442;-62
2022/05/20 05:37:49;;;;;;;0.88;0.88;;;20.80;56.40;;;;;;5069044;28;43575;-62
2022/05/20 05:40:21;;;;;;;1.33;1.23;;;20.80;56.40;;;;;;5069092;28;43833;-62
2022/05/20 05:42:48;;;;;;;1.00;1.00;;;20.80;56.40;;;;;;5069657;28;43554;-62
2022/05/20 05:45:20;;;;;;;0.95;0.93;;;20.80;56.50;;;;;;5066922;28;43424;-62
2022/05/20 05:47:53;;;;;;;1.17;1.08;;;20.80;56.50;;;;;;5070726;28;43531;-62
2022/05/20 05:50:20;;;;;;;0.88;0.88;;;20.80;56.50;;;;;;5060405;28;43821;-62
2022/05/20 05:52:58;;;;;;;0.90;0.90;;;20.80;56.50;;;;;;5069321;28;43396;-62
2022/05/20 05:55:27;;;;;;;1.20;1.10;;;20.80;56.50;;;;;;5068959;28;43545;-63
2022/05/20 05:57:55;;;;;;;1.17;1.10;;;20.80;56.40;;;;;;5068999;28;43452;-63
2022/05/20 06:00:23;;;;;;;1.27;1.20;;;20.80;56.50;;;;;;5067959;28;44156;-63
2022/05/20 06:02:50;;;;;;;1.45;1.35;;;20.80;56.50;;;;;;5069385;28;43527;-62
2022/05/20 06:05:18;;;;;;;0.90;0.90;;;20.80;56.50;;;;;;5069215;28;43453;-63
2022/05/20 06:07:46;;;;;;;1.23;1.10;;;20.80;56.50;;;;;;5068551;28;44146;-63
2022/05/20 06:10:14;;;;;;;0.80;0.80;;;20.80;56.50;;;;;;5069285;28;45854;-63
2022/05/20 06:12:42;;;;;;;1.02;0.85;;;20.80;56.40;;;;;;5069346;28;43715;-63
2022/05/20 06:15:17;;;;;;;1.00;1.00;;;20.80;56.50;;;;;;5069977;28;43506;-62
2022/05/20 06:17:45;;;;;;;0.98;0.98;;;20.80;56.40;;;;;;5072833;28;43550;-62
2022/05/20 06:20:13;;;;;;;1.10;1.00;;;20.80;56.40;;;;;;5071623;27;43524;-63
2022/05/20 06:22:41;;;;;;;0.90;0.90;;;20.80;56.50;;;;;;5068932;28;44149;-63
2022/05/20 06:25:11;;;;;;;3.05;1.58;;;20.80;56.60;;;;;;5069543;28;43449;-63
2022/05/20 06:27:39;;;;;;;1.20;1.10;;;20.80;56.70;;;;;;5069603;27;43470;-62
2022/05/20 06:30:09;;;;;;;1.30;1.20;;;20.70;56.60;;;;;;5068953;28;44133;-63
2022/05/20 06:32:36;;;;;;;1.17;1.10;;;20.80;56.60;;;;;;5065521;28;43641;-63
2022/05/20 06:40:45;;;;;;;1.52;1.05;;;20.70;56.60;;;;;;5070220;28;43860;-64
2022/05/20 06:43:14;;;;;;;1.08;1.00;;;20.70;56.70;;;;;;5068726;28;43431;-61
2022/05/20 06:45:45;;;;;;;1.17;1.08;;;20.70;57.30;;;;;;5068518;28;43431;-61
2022/05/20 06:48:39;;;;;;;1.23;1.13;;;20.70;57.30;;;;;;5068664;28;43434;-62
2022/05/20 06:51:08;;;;;;;1.30;1.20;;;20.70;56.70;;;;;;5056127;28;43822;-62
2022/05/20 06:53:36;;;;;;;1.00;1.00;;;20.70;56.70;;;;;;5068993;28;43703;-61
2022/05/20 06:56:03;;;;;;;1.02;1.02;;;20.70;56.70;;;;;;5068444;28;43467;-61
2022/05/20 06:58:31;;;;;;;1.88;1.00;;;20.70;56.70;;;;;;5071256;28;43395;-62
2022/05/20 07:00:59;;;;;;;1.65;0.95;;;20.70;56.70;;;;;;5065741;28;44668;-61
2022/05/20 07:03:27;;;;;;;1.45;0.93;;;20.70;56.70;;;;;;5068378;28;43996;-61
2022/05/20 07:05:54;;;;;;;0.98;0.88;;;20.70;56.70;;;;;;5063254;28;43450;-61
2022/05/20 07:08:23;;;;;;;1.00;1.00;;;20.70;56.70;;;;;;5070799;28;43449;-61
2022/05/20 07:10:50;;;;;;;1.40;1.13;;;20.70;56.70;;;;;;5067863;28;43628;-61
2022/05/20 07:13:37;;;;;;;1.17;0.95;;;20.70;56.70;;;;;;5068156;28;43698;-61
2022/05/20 07:16:04;;;;;;;0.95;0.95;;;20.70;56.80;;;;;;5067761;28;43573;-61
2022/05/20 07:18:34;;;;;;;0.90;0.90;;;20.70;56.80;;;;;;5067552;27;43541;-61
2022/05/20 07:21:02;;;;;;;1.77;0.98;;;20.70;56.80;;;;;;5069262;28;43865;-62
2022/05/20 07:23:31;;;;;;;0.82;0.75;;;20.70;56.70;;;;;;5068118;28;43388;-61
2022/05/20 07:26:00;;;;;;;0.80;0.80;;;20.70;56.70;;;;;;5069853;28;43527;-61
2022/05/20 07:28:30;;;;;;;1.35;1.25;;;20.70;56.70;;;;;;5062939;28;43428;-61
2022/05/20 07:30:57;;;;;;;1.23;1.00;;;20.70;56.70;;;;;;5067621;28;45000;-61
2022/05/20 07:33:25;;;;;;;1.02;1.02;;;20.70;56.70;;;;;;5067988;28;43400;-62
2022/05/20 07:35:53;;;;;;;1.42;1.30;;;20.70;56.70;;;;;;5070022;28;43501;-61
2022/05/20 07:38:20;;;;;;;0.90;0.90;;;20.80;56.80;;;;;;5068292;28;43387;-61
2022/05/20 07:40:48;;;;;;;0.93;0.93;;;20.80;56.70;;;;;;5067512;28;43811;-61
2022/05/20 07:43:15;;;;;;;1.00;1.00;;;20.80;56.70;;;;;;5067643;28;43712;-61
2022/05/20 07:45:43;;;;;;;1.08;0.90;;;20.80;56.80;;;;;;5067589;28;43517;-61
2022/05/20 07:48:11;;;;;;;0.93;0.93;;;20.80;56.80;;;;;;5064673;28;43440;-61
2022/05/20 07:50:42;;;;;;;0.95;0.95;;;20.80;56.70;;;;;;5067485;28;44065;-61
2022/05/20 07:53:19;;;;;;;0.93;0.93;;;20.80;56.70;;;;;;5067596;28;43504;-61
2022/05/20 07:55:59;;;;;;;1.10;0.90;;;20.80;56.70;;;;;;5063635;27;43533;-61
2022/05/20 07:58:31;;;;;;;0.85;0.82;;;20.80;57.30;;;;;;5067284;28;43584;-61
2022/05/20 08:01:21;;;;;;;0.88;0.88;;;20.80;56.70;;;;;;5065887;28;44691;-61
2022/05/20 08:06:41;;;;;;;0.90;0.90;;;20.80;56.80;;;;;;5057129;28;43481;-61
2022/05/20 08:09:17;;;;;;;0.90;0.77;;;20.80;56.90;;;;;;5133422;27;1419477;-62
2022/05/20 08:11:45;;;;;;;0.90;0.90;;;20.80;56.80;;;;;;5165950;27;43977;-62
2022/05/20 08:14:12;;;;;;;0.98;0.85;;;20.80;56.80;;;;;;5165718;27;43447;-62
2022/05/20 08:16:40;;;;;;;1.20;1.10;;;20.80;56.80;;;;;;5165501;27;43454;-62
2022/05/20 08:19:07;;;;;;;1.35;0.88;;;20.80;56.80;;;;;;5168546;27;44659;-62
2022/05/20 08:21:35;;;;;;;1.30;0.90;;;20.80;56.80;;;;;;5155655;27;43695;-62
2022/05/20 08:24:03;;;;;;;1.05;0.95;;;20.80;56.80;;;;;;5145123;27;43398;-62
2022/05/20 08:26:30;;;;;;;1.55;0.80;;;20.80;56.80;;;;;;5165647;27;43481;-62
2022/05/20 08:28:59;;;;;;;1.00;0.90;;;20.80;56.80;;;;;;5167291;27;44135;-62
2022/05/20 08:31:26;;;;;;;0.95;0.85;;;20.80;56.80;;;;;;5164941;27;43471;-62
2022/05/20 08:33:54;;;;;;;0.70;0.70;;;20.80;56.70;;;;;;5160846;27;43472;-62
2022/05/20 08:36:23;;;;;;;1.65;1.23;;;20.80;56.70;;;;;;5142878;27;43476;-62
2022/05/20 08:38:50;;;;;;;1.85;1.20;;;20.80;56.50;;;;;;5167861;27;44877;-62
2022/05/20 08:41:54;;;;;;;2.53;1.17;;;20.90;56.60;;;;;;5165007;27;43399;-62
2022/05/20 08:44:24;;;;;;;0.85;0.85;;;20.90;56.50;;;;;;5058772;28;44088;-62
2022/05/20 08:47:20;;;;;;;1.17;0.80;;;20.90;56.70;;;;;;5146678;27;43599;-62
2022/05/20 08:49:53;;;;;;;1.10;1.05;;;21.00;56.80;;;;;;5154313;27;43784;-63
2022/05/20 08:52:20;;;;;;;1.52;1.15;;;21.00;57.00;;;;;;5161764;27;43487;-62
2022/05/20 08:54:48;;;;;;;1.88;1.00;;;20.90;57.00;;;;;;5166788;27;43451;-62
2022/05/20 08:57:36;;;;;;;1.13;0.82;;;21.00;57.20;;;;;;5163585;27;43418;-61
2022/05/20 09:00:09;;;;;;;2.08;1.20;;;21.00;57.20;;;;;;5164766;27;43764;-62
2022/05/20 09:02:37;;;;;;;1.63;1.00;;;21.00;57.20;;;;;;5145437;27;43650;-62
2022/05/20 09:05:24;;;;;;;0.88;0.80;;;21.00;57.10;;;;;;5154533;27;43460;-62
2022/05/20 09:08:17;;;;;;;1.02;0.93;;;21.00;57.00;;;;;;5164827;27;43394;-62
2022/05/20 09:10:57;;;;;;;1.50;1.15;;;21.00;57.00;;;;;;5156701;27;43796;-62
2022/05/20 09:16:30;;;;;;;1.35;0.90;;;21.10;57.00;;;;;;5163321;27;43502;-62
2022/05/20 09:19:14;;;;;;;1.65;1.30;;;21.00;57.00;;;;;;5130488;27;43587;-62
2022/05/20 09:22:15;;;;;;;0.68;0.68;;;21.00;57.00;;;;;;5146999;27;43977;-62
2022/05/20 09:24:52;;;;;;;1.58;0.90;;;21.10;57.60;;;;;;5139233;27;43575;-62
2022/05/20 09:27:36;;;;;;;0.77;0.77;;;21.10;56.90;;;;;;5150343;27;44103;-62
2022/05/20 09:30:10;;;;;;;1.13;0.85;;;21.10;57.00;;;;;;5150860;27;43536;-62
2022/05/20 09:32:45;;;;;;;1.27;1.00;;;21.10;56.90;;;;;;5138930;27;44761;-62
2022/05/20 09:35:18;;;;;;;2.63;1.17;;;21.10;56.80;;;;;;5137833;27;43507;-63
2022/05/20 09:37:51;;;;;;;0.95;0.95;;;21.10;56.80;;;;;;5147755;27;44075;-62
2022/05/20 09:40:37;;;;;;;1.80;0.82;;;21.10;57.30;;;;;;5149779;27;43409;-63
2022/05/20 09:43:35;;;;;;;0.93;0.85;;;21.20;57.10;;;;;;5140284;27;44094;-63
2022/05/20 09:46:05;;;;;;;1.67;1.40;;;21.20;57.20;;;;;;5149239;27;43692;-62
2022/05/20 09:48:44;;;;;;;1.23;0.90;;;21.20;57.10;;;;;;5150518;27;43449;-62
2022/05/20 09:51:16;;;;;;;2.70;1.50;;;21.20;56.70;;;;;;5149110;27;43607;-62
2022/05/20 09:54:04;;;;;;;1.23;1.15;;;21.20;56.90;;;;;;5148008;27;44705;-62
2022/05/20 09:56:33;;;;;;;1.98;1.30;;;21.20;57.10;;;;;;5154253;27;43470;-62
2022/05/20 09:59:10;;;;;;;1.88;1.08;;;21.30;57.10;;;;;;5149738;27;43527;-62
2022/05/20 10:01:40;;;;;;;1.88;1.15;;;21.30;57.60;;;;;;5149850;27;43517;-62
2022/05/20 10:04:26;;;;;;;1.48;1.23;;;21.30;56.80;;;;;;5149872;27;44988;-62
2022/05/20 10:06:58;;;;;;;1.75;1.20;;;21.30;56.90;;;;;;5145172;27;43562;-63
2022/05/20 10:09:28;;;;;;;1.10;1.00;;;21.40;56.80;;;;;;5127897;27;43476;-62
2022/05/20 10:12:05;;;;;;;2.57;1.00;;;21.40;56.80;;;;;;5129297;27;43553;-62
2022/05/20 10:15:01;;;;;;;1.13;1.02;;;21.40;56.80;;;;;;5128802;27;44697;-62
2022/05/20 10:18:10;;;;;;;1.90;0.85;;;21.40;56.80;;;;;;5127482;27;43499;-63
2022/05/20 10:20:59;;;;;;;1.20;1.10;;;21.40;56.80;;;;;;5123943;27;43462;-62
2022/05/20 10:23:42;;;;;;;1.50;0.90;;;21.40;56.90;;;;;;5126283;27;43542;-63
2022/05/20 10:26:47;;;;;;;1.52;1.20;;;21.40;56.80;;;;;;5127959;27;43748;-62
2022/05/20 10:32:34;;;;;;;1.60;1.30;;;21.40;56.80;;;;;;5122010;27;43448;-62
2022/05/20 10:35:16;;;;;;;1.15;0.90;;;21.50;56.90;;;;;;5123192;27;43627;-62
2022/05/20 10:37:55;;;;;;;1.15;0.90;;;21.50;56.90;;;;;;5115299;27;43808;-61
2022/05/20 10:40:35;;;;;;;1.05;0.98;;;21.50;56.90;;;;;;5126322;27;43527;-62
2022/05/20 10:43:24;;;;;;;1.17;1.00;;;21.50;56.80;;;;;;5122800;27;43383;-63
2022/05/20 10:49:29;;;;;;;1.98;0.90;;;21.50;57.10;;;;;;5120912;27;43920;-62
2022/05/20 10:52:16;;;;;;;1.00;0.90;;;21.50;57.70;;;;;;5120526;27;43451;-62
2022/05/20 10:55:09;;;;;;;2.22;1.00;;;21.50;57.10;;;;;;5122836;27;43472;-62
2022/05/20 10:58:01;;;;;;;1.75;1.02;;;21.50;57.00;;;;;;5121494;27;43569;-62
2022/05/20 11:00:51;;;;;;;1.05;0.95;;;21.60;57.20;;;;;;5125884;27;45813;-62
2022/05/20 11:03:50;;;;;;;1.38;1.00;;;21.60;57.10;;;;;;5118483;27;43456;-62
2022/05/20 11:06:37;;;;;;;0.98;0.93;;;21.60;57.10;;;;;;5129753;27;43494;-62
2022/05/20 11:09:08;;;;;;;1.30;1.10;;;21.60;57.10;;;;;;5133170;27;44078;-61
2022/05/20 11:11:51;;;;;;;1.25;1.00;;;21.60;57.10;;;;;;5149438;27;44985;-62
2022/05/20 11:14:57;;;;;;;1.15;1.00;;;21.60;57.10;;;;;;5144204;27;43989;-62
2022/05/20 11:17:59;;;;;;;1.40;0.90;;;21.60;57.00;;;;;;5141420;27;43526;-62
2022/05/20 11:21:10;;;;;;;1.05;0.95;;;21.70;57.00;;;;;;5145171;27;43924;-62
2022/05/20 11:24:01;;;;;;;2.35;1.20;;;21.70;57.10;;;;;;5125953;27;43971;-62
2022/05/20 11:27:07;;;;;;;1.50;1.13;;;21.70;56.90;;;;;;5149963;27;43419;-62
2022/05/20 11:30:04;;;;;;;1.17;1.08;;;21.70;57.00;;;;;;5070358;27;43846;-63
2022/05/20 11:33:07;;;;;;;1.40;1.27;;;21.70;56.80;;;;;;5143262;27;43520;-62
2022/05/20 11:35:59;;;;;;;2.45;1.00;;;21.70;57.00;;;;;;5149442;27;44026;-63
2022/05/20 11:39:01;;;;;;;0.77;0.77;;;21.70;57.00;;;;;;5136392;27;43435;-62
2022/05/20 11:42:11;;;;;;;2.10;1.10;;;21.70;57.00;;;;;;5146635;27;43456;-62
2022/05/20 11:44:47;;;;;;;1.25;1.02;;;21.70;57.00;;;;;;5136935;27;43628;-62
2022/05/20 11:47:25;;;;;;;1.00;1.00;;;21.70;57.10;;;;;;5142609;27;45250;-62
2022/05/20 11:50:06;;;;;;;1.25;0.80;;;21.70;57.00;;;;;;5127810;27;44758;-61
2022/05/20 11:52:59;;;;;;;2.53;1.27;;;21.80;57.00;;;;;;5148775;27;43447;-62
2022/05/20 11:55:34;;;;;;;1.83;1.30;;;21.80;56.90;;;;;;5119148;27;43545;-62
2022/05/20 11:58:05;;;;;;;1.33;1.00;;;21.80;56.70;;;;;;5145088;27;44082;-62
2022/05/20 12:00:37;;;;;;;1.90;1.20;;;21.80;57.30;;;;;;5148559;27;44118;-62
2022/05/20 12:03:18;;;;;;;1.15;1.00;;;21.80;56.70;;;;;;5149229;27;43455;-61
2022/05/20 12:05:49;;;;;;;2.85;1.30;;;21.90;56.80;;;;;;5146612;27;43456;-62
2022/05/20 12:08:39;;;;;;;1.87;1.20;;;21.90;56.70;;;;;;5144622;27;44064;-62
2022/05/20 12:11:40;;;;;;;3.87;1.20;;;21.90;56.70;;;;;;5148493;27;43362;-62
2022/05/20 12:14:07;;;;;;;1.77;1.27;;;21.90;56.70;;;;;;5138766;27;43501;-62
2022/05/20 12:16:59;;;;;;;1.27;1.00;;;21.90;56.70;;;;;;5148357;27;43472;-62
2022/05/20 12:25:39;;;;;;;4.70;1.48;;;21.90;56.60;;;;;;5147600;27;43440;-62
2022/05/20 12:28:30;;;;;;;2.28;1.40;;;21.90;56.70;;;;;;5148189;27;43516;-62
2022/05/20 12:31:25;;;;;;;1.83;1.13;;;21.90;56.60;;;;;;5150670;27;44173;-62
2022/05/20 12:34:05;;;;;;;1.73;1.30;;;21.90;56.60;;;;;;5145891;27;43731;-62
2022/05/20 12:36:42;;;;;;;1.70;1.23;;;21.90;56.50;;;;;;5146676;27;43483;-62
2022/05/20 12:39:09;;;;;;;1.35;1.17;;;21.90;56.60;;;;;;5148248;27;43809;-63
2022/05/20 12:41:44;;;;;;;1.23;1.10;;;21.90;56.60;;;;;;5147832;27;43749;-62
2022/05/20 12:44:17;;;;;;;2.20;1.33;;;21.90;56.60;;;;;;5141924;27;43551;-62
2022/05/20 12:47:04;;;;;;;1.05;0.90;;;22.00;56.70;;;;;;5145093;27;43497;-62
2022/05/20 12:49:49;;;;;;;1.90;1.15;;;22.00;56.60;;;;;;5140734;27;43476;-62
2022/05/20 12:52:18;;;;;;;1.20;1.10;;;22.00;56.70;;;;;;5147706;27;43800;-63
2022/05/20 12:54:52;;;;;;;1.10;1.00;;;22.00;56.60;;;;;;5150493;27;43468;-62
2022/05/20 12:57:33;;;;;;;1.00;0.90;;;22.00;56.50;;;;;;5149588;27;43476;-62
2022/05/20 13:00:07;;;;;;;;;;;22.00;56.50;;;;;;5151267;27;43574;-63
2022/05/20 13:02:51;;;;;;;1.45;1.20;;;22.00;56.60;;;;;;5160184;27;44089;-62
2022/05/20 13:05:35;;;;;;;1.25;1.13;;;22.00;56.50;;;;;;5150673;27;43848;-62
2022/05/20 13:08:08;;;;;;;1.60;1.08;;;22.00;56.70;;;;;;5149270;27;43577;-62
2022/05/20 13:10:39;;;;;;;1.80;1.20;;;22.00;56.60;;;;;;5148986;27;43480;-62
2022/05/20 13:13:13;;;;;;;2.10;1.58;;;22.00;56.60;;;;;;5151340;27;44037;-62
2022/05/20 13:15:43;;;;;;;2.35;1.30;;;22.00;56.50;;;;;;5144021;27;43681;-62
2022/05/20 13:18:20;;;;;;;1.50;1.40;;;22.00;56.40;;;;;;5153673;27;43409;-62
2022/05/20 13:20:50;;;;;;;1.83;1.27;;;22.00;56.40;;;;;;5137952;27;43515;-62
2022/05/20 13:23:27;;;;;;;1.30;1.20;;;22.00;56.40;;;;;;5151106;27;44047;-62
2022/05/20 13:25:54;;;;;;;1.83;1.30;;;22.00;56.30;;;;;;5153112;27;43543;-62
2022/05/20 13:28:40;;;;;;;1.80;1.38;;;22.00;56.30;;;;;;5149563;27;43480;-62
2022/05/20 13:31:12;;;;;;;1.20;1.05;;;22.00;56.30;;;;;;5146660;27;43569;-62
2022/05/20 13:33:43;;;;;;;1.40;1.30;;;22.00;56.40;;;;;;5150274;27;43789;-61
2022/05/20 13:36:17;;;;;;;1.42;1.20;;;21.90;56.30;;;;;;5151030;27;43448;-62
2022/05/20 13:39:05;;;;;;;2.55;1.20;;;21.90;56.30;;;;;;5150364;27;43513;-63
2022/05/20 13:41:33;;;;;;;1.20;1.10;;;22.00;56.40;;;;;;5134313;27;43547;-62
2022/05/20 13:44:02;;;;;;;1.48;1.38;;;21.90;56.40;;;;;;5129487;27;43788;-62
2022/05/20 13:49:26;;;;;;;1.17;1.17;;;21.90;56.40;;;;;;5146075;27;43475;-62
2022/05/20 13:52:01;;;;;;;1.15;1.05;;;21.90;56.40;;;;;;5150562;27;43527;-62
2022/05/20 13:54:43;;;;;;;1.38;1.27;;;21.90;56.40;;;;;;5150645;27;44002;-62
2022/05/20 13:57:20;;;;;;;1.45;1.35;;;21.90;56.40;;;;;;5148722;27;43607;-61
2022/05/20 13:59:52;;;;;;;1.15;1.00;;;21.90;56.30;;;;;;5150317;27;43436;-62
2022/05/20 14:02:35;;;;;;;1.13;1.02;;;21.90;56.40;;;;;;5144537;27;43470;-61
2022/05/20 14:05:27;;;;;;;1.27;1.05;;;21.90;56.30;;;;;;5152055;27;44054;-62
2022/05/20 14:08:00;;;;;;;1.60;1.30;;;21.90;56.50;;;;;;5149737;27;43520;-62
2022/05/20 14:10:28;;;;;;;0.82;0.82;;;21.90;56.80;;;;;;5148689;27;43423;-62